Time;durP1;ratioP1;P1;durP2;ratioP2;P2;SDS_P1;SDS_P2;PMS_P1;PMS_P2;Temp;Humidity;BMP_temperature;BMP_pressure;BME280_temperature;BME280_humidity;BME280_pressure;Samples;Min_cycle;Max_cycle;Signal;HPM_P1;HPM_P2
2021/04/09 00:01:42;;;;;;;0.10;0.10;;;;;;;;;;5071285;28;20191;-77
2021/04/09 00:04:08;;;;;;;0.10;0.10;;;;;;;;;;5064207;28;20233;-75
2021/04/09 00:06:35;;;;;;;0.10;0.10;;;;;;;;;;5033382;28;20193;-75
2021/04/09 00:09:01;;;;;;;0.20;0.20;;;;;;;;;;5051107;28;20161;-76
2021/04/09 00:11:28;;;;;;;0.10;0.10;;;;;;;;;;5038356;28;20184;-76
2021/04/09 00:13:54;;;;;;;0.17;0.17;;;;;;;;;;5071015;28;20219;-75
2021/04/09 00:16:21;;;;;;;0.30;0.30;;;;;;;;;;5070972;28;20169;-76
2021/04/09 00:18:47;;;;;;;1.27;1.20;;;;;;;;;;5070897;28;20173;-77
2021/04/09 00:21:14;;;;;;;0.10;0.10;;;;;;;;;;5070963;28;20165;-75
2021/04/09 00:23:40;;;;;;;0.15;0.15;;;;;;;;;;5070512;28;20276;-78
2021/04/09 00:26:06;;;;;;;0.10;0.10;;;;;;;;;;5070621;28;20189;-76
2021/04/09 00:28:32;;;;;;;0.10;0.10;;;;;;;;;;5070777;28;20186;-75
2021/04/09 00:30:58;;;;;;;0.10;0.10;;;;;;;;;;5070725;28;20167;-76
2021/04/09 00:33:24;;;;;;;0.20;0.20;;;;;;;;;;5040967;28;20684;-76
2021/04/09 00:35:51;;;;;;;0.10;0.10;;;;;;;;;;5050723;28;20176;-75
2021/04/09 00:38:17;;;;;;;0.10;0.10;;;;;;;;;;5044405;28;20480;-76
2021/04/09 00:40:43;;;;;;;0.10;0.10;;;;;;;;;;5052672;28;20260;-77
2021/04/09 00:43:09;;;;;;;0.30;0.30;;;;;;;;;;5052469;28;20165;-78
2021/04/09 00:45:36;;;;;;;0.20;0.20;;;;;;;;;;5052460;28;20673;-78
2021/04/09 00:48:03;;;;;;;0.22;0.22;;;;;;;;;;5070372;28;20157;-77
2021/04/09 00:50:30;;;;;;;0.20;0.20;;;;;;;;;;5070166;28;20224;-75
2021/04/09 00:52:57;;;;;;;0.10;0.10;;;;;;;;;;5052277;28;20207;-75
2021/04/09 00:55:23;;;;;;;0.52;0.52;;;;;;;;;;5070231;28;20212;-77
2021/04/09 00:57:51;;;;;;;0.10;0.10;;;;;;;;;;5032678;28;20552;-78
2021/04/09 01:00:18;;;;;;;0.10;0.10;;;;;;;;;;5032828;28;20170;-77
2021/04/09 01:02:44;;;;;;;0.13;0.13;;;;;;;;;;5069603;28;20175;-77
2021/04/09 01:05:11;;;;;;;0.10;0.10;;;;;;;;;;5069853;28;20200;-77
2021/04/09 01:07:41;;;;;;;0.10;0.10;;;;;;;;;;5052240;28;20587;-75
2021/04/09 01:10:08;;;;;;;0.10;0.10;;;;;;;;;;5070072;28;20180;-74
2021/04/09 01:12:37;;;;;;;0.47;0.47;;;;;;;;;;5069768;28;20160;-78
2021/04/09 01:15:05;;;;;;;0.10;0.10;;;;;;;;;;5052030;28;20282;-74
2021/04/09 01:17:44;;;;;;;0.10;0.10;;;;;;;;;;5068638;28;20210;-77
2021/04/09 01:20:10;;;;;;;0.13;0.13;;;;;;;;;;5069859;28;20161;-77
2021/04/09 01:23:02;;;;;;;0.10;0.10;;;;;;;;;;5069778;28;20220;-78
2021/04/09 01:25:43;;;;;;;0.10;0.10;;;;;;;;;;5053516;28;20224;-77
2021/04/09 01:28:13;;;;;;;0.85;0.85;;;;;;;;;;5051871;28;20650;-77
2021/04/09 01:30:39;;;;;;;0.10;0.10;;;;;;;;;;5051781;28;20593;-77
2021/04/09 01:33:07;;;;;;;0.10;0.10;;;;;;;;;;5069569;28;20694;-76
2021/04/09 01:35:34;;;;;;;0.10;0.10;;;;;;;;;;5050996;28;20204;-77
2021/04/09 01:38:02;;;;;;;0.10;0.10;;;;;;;;;;5069203;28;20165;-78
2021/04/09 01:40:30;;;;;;;0.10;0.10;;;;;;;;;;5051614;28;20176;-76
2021/04/09 01:42:59;;;;;;;0.10;0.10;;;;;;;;;;5069430;28;20204;-78
2021/04/09 01:45:26;;;;;;;0.10;0.10;;;;;;;;;;5069297;28;20283;-75
2021/04/09 01:47:52;;;;;;;0.10;0.10;;;;;;;;;;5069436;28;20168;-78
2021/04/09 01:50:19;;;;;;;0.10;0.10;;;;;;;;;;5046321;28;20232;-78
2021/04/09 01:52:46;;;;;;;0.10;0.10;;;;;;;;;;5031576;28;20181;-77
2021/04/09 01:55:14;;;;;;;0.10;0.10;;;;;;;;;;5048258;28;20209;-77
2021/04/09 01:57:41;;;;;;;0.10;0.10;;;;;;;;;;5049202;28;20166;-76
2021/04/09 02:00:10;;;;;;;0.10;0.10;;;;;;;;;;5049229;28;20180;-77
2021/04/09 02:02:37;;;;;;;0.10;0.10;;;;;;;;;;5048879;28;20162;-77
2021/04/09 02:05:04;;;;;;;0.10;0.10;;;;;;;;;;5049054;28;20685;-75
2021/04/09 02:07:32;;;;;;;0.20;0.20;;;;;;;;;;5049168;28;20166;-77
2021/04/09 02:09:59;;;;;;;0.13;0.13;;;;;;;;;;5031499;28;20169;-78
2021/04/09 02:12:25;;;;;;;0.10;0.10;;;;;;;;;;5049101;28;20173;-78
2021/04/09 02:14:56;;;;;;;0.20;0.20;;;;;;;;;;5048889;28;20193;-78
2021/04/09 02:17:22;;;;;;;0.10;0.10;;;;;;;;;;5048954;28;20599;-75
2021/04/09 02:19:48;;;;;;;0.20;0.20;;;;;;;;;;5049024;28;20165;-76
2021/04/09 02:22:17;;;;;;;0.10;0.10;;;;;;;;;;5049049;28;20196;-75
2021/04/09 02:24:47;;;;;;;0.10;0.10;;;;;;;;;;5049050;28;20216;-76
2021/04/09 02:27:14;;;;;;;0.68;0.68;;;;;;;;;;5031222;28;20168;-76
2021/04/09 02:29:41;;;;;;;0.10;0.10;;;;;;;;;;5048939;28;20157;-75
2021/04/09 02:32:07;;;;;;;0.10;0.10;;;;;;;;;;5048904;28;20172;-77
2021/04/09 02:34:34;;;;;;;0.10;0.10;;;;;;;;;;5048458;28;20666;-76
2021/04/09 02:37:00;;;;;;;0.10;0.10;;;;;;;;;;5031180;28;20708;-76
2021/04/09 02:39:27;;;;;;;0.35;0.30;;;;;;;;;;5048828;28;20188;-76
2021/04/09 02:41:57;;;;;;;0.10;0.10;;;;;;;;;;5048705;28;20244;-76
2021/04/09 02:44:24;;;;;;;0.82;0.82;;;;;;;;;;5048673;28;20198;-76
2021/04/09 02:46:54;;;;;;;0.20;0.20;;;;;;;;;;5048676;28;20196;-75
2021/04/09 02:49:41;;;;;;;0.20;0.20;;;;;;;;;;5052475;28;20626;-76
2021/04/09 02:52:08;;;;;;;0.10;0.10;;;;;;;;;;5034721;28;20236;-76
2021/04/09 02:54:35;;;;;;;0.10;0.10;;;;;;;;;;5052206;28;20193;-77
2021/04/09 02:57:02;;;;;;;0.10;0.10;;;;;;;;;;5034544;28;20165;-77
2021/04/09 02:59:30;;;;;;;0.10;0.10;;;;;;;;;;5034535;28;20208;-77
2021/04/09 03:01:57;;;;;;;0.10;0.10;;;;;;;;;;5052320;28;20157;-77
2021/04/09 03:04:23;;;;;;;0.10;0.10;;;;;;;;;;5034430;28;20201;-77
2021/04/09 03:06:50;;;;;;;0.55;0.55;;;;;;;;;;5052154;28;20200;-77
2021/04/09 03:09:16;;;;;;;0.10;0.10;;;;;;;;;;5052117;28;20157;-77
2021/04/09 03:11:43;;;;;;;0.10;0.10;;;;;;;;;;5052238;28;20192;-76
2021/04/09 03:14:10;;;;;;;0.10;0.10;;;;;;;;;;5034221;28;20204;-77
2021/04/09 03:16:44;;;;;;;0.10;0.10;;;;;;;;;;5052004;28;20165;-77
2021/04/09 03:19:11;;;;;;;0.20;0.20;;;;;;;;;;5031671;28;20200;-76
2021/04/09 03:21:38;;;;;;;0.10;0.10;;;;;;;;;;5052059;28;20161;-75
2021/04/09 03:24:05;;;;;;;2.25;2.08;;;;;;;;;;5052063;28;20196;-76
2021/04/09 03:26:31;;;;;;;0.10;0.10;;;;;;;;;;5051855;28;20197;-76
2021/04/09 03:28:57;;;;;;;0.10;0.10;;;;;;;;;;5051831;28;20166;-77
2021/04/09 03:31:23;;;;;;;1.33;1.27;;;;;;;;;;5051926;28;20157;-77
2021/04/09 03:33:50;;;;;;;0.68;0.68;;;;;;;;;;5051560;28;20250;-76
2021/04/09 03:36:16;;;;;;;0.30;0.30;;;;;;;;;;5033892;28;20249;-77
2021/04/09 03:38:42;;;;;;;2.05;1.95;;;;;;;;;;5051583;28;20192;-75
2021/04/09 03:41:08;;;;;;;0.10;0.10;;;;;;;;;;5051602;28;20257;-76
2021/04/09 03:43:35;;;;;;;1.27;1.27;;;;;;;;;;5033583;28;20205;-76
2021/04/09 03:46:01;;;;;;;0.15;0.15;;;;;;;;;;5033582;28;20220;-76
2021/04/09 03:48:27;;;;;;;0.20;0.20;;;;;;;;;;5051259;28;20164;-77
2021/04/09 03:50:53;;;;;;;0.10;0.10;;;;;;;;;;5060919;28;20216;-75
2021/04/09 03:53:20;;;;;;;0.10;0.10;;;;;;;;;;5071006;28;20172;-77
2021/04/09 03:55:46;;;;;;;0.10;0.10;;;;;;;;;;5053311;28;20545;-75
2021/04/09 03:58:13;;;;;;;3.30;2.05;;;;;;;;;;5070825;28;20157;-76
2021/04/09 04:00:39;;;;;;;0.10;0.10;;;;;;;;;;5052318;28;20195;-76
2021/04/09 04:03:05;;;;;;;0.15;0.15;;;;;;;;;;5070947;28;20220;-77
2021/04/09 04:05:31;;;;;;;0.10;0.10;;;;;;;;;;5070889;28;20209;-76
2021/04/09 04:07:57;;;;;;;0.10;0.10;;;;;;;;;;5071036;28;20157;-76
2021/04/09 04:10:24;;;;;;;0.10;0.10;;;;;;;;;;5053021;28;20173;-75
2021/04/09 04:12:51;;;;;;;0.10;0.10;;;;;;;;;;5052818;28;20184;-76
2021/04/09 04:15:17;;;;;;;0.22;0.22;;;;;;;;;;5070542;28;20242;-76
2021/04/09 04:17:43;;;;;;;0.10;0.10;;;;;;;;;;5070646;28;20160;-76
2021/04/09 04:20:10;;;;;;;0.40;0.40;;;;;;;;;;5052983;28;20232;-76
2021/04/09 04:22:36;;;;;;;0.20;0.20;;;;;;;;;;5052517;28;20198;-76
2021/04/09 04:25:03;;;;;;;0.10;0.10;;;;;;;;;;5070444;28;20264;-77
2021/04/09 04:27:30;;;;;;;0.10;0.10;;;;;;;;;;5070373;28;20172;-76
2021/04/09 04:29:56;;;;;;;0.25;0.25;;;;;;;;;;5070544;28;20153;-77
2021/04/09 04:32:22;;;;;;;0.10;0.10;;;;;;;;;;5052537;28;20169;-76
2021/04/09 04:34:49;;;;;;;0.73;0.73;;;;;;;;;;5070343;28;20207;-76
2021/04/09 04:37:15;;;;;;;0.20;0.20;;;;;;;;;;5070524;28;20176;-77
2021/04/09 04:39:41;;;;;;;0.65;0.65;;;;;;;;;;5070288;28;20163;-76
2021/04/09 04:42:07;;;;;;;0.10;0.10;;;;;;;;;;5052082;28;20184;-77
2021/04/09 04:44:33;;;;;;;0.40;0.40;;;;;;;;;;5052159;28;20637;-76
2021/04/09 04:47:00;;;;;;;0.10;0.10;;;;;;;;;;5070111;28;20160;-76
2021/04/09 04:49:26;;;;;;;0.75;0.75;;;;;;;;;;5070234;28;20168;-77
2021/04/09 04:51:52;;;;;;;0.28;0.28;;;;;;;;;;5069759;28;20292;-77
2021/04/09 04:54:19;;;;;;;0.80;0.80;;;;;;;;;;5069944;28;20200;-76
2021/04/09 04:56:45;;;;;;;0.20;0.20;;;;;;;;;;5070062;28;20172;-77
2021/04/09 04:59:11;;;;;;;0.52;0.52;;;;;;;;;;5051904;28;20184;-77
2021/04/09 05:01:37;;;;;;;0.10;0.10;;;;;;;;;;5052144;28;20177;-78
2021/04/09 05:04:04;;;;;;;0.10;0.10;;;;;;;;;;5069633;28;20196;-77
2021/04/09 05:06:30;;;;;;;0.13;0.13;;;;;;;;;;5069315;28;20185;-76
2021/04/09 05:08:56;;;;;;;0.20;0.20;;;;;;;;;;5069637;28;20215;-77
2021/04/09 05:11:23;;;;;;;0.10;0.10;;;;;;;;;;5069713;28;20168;-78
2021/04/09 05:13:49;;;;;;;0.10;0.10;;;;;;;;;;5069491;28;20188;-77
2021/04/09 05:16:15;;;;;;;0.32;0.25;;;;;;;;;;5069619;28;20172;-78
2021/04/09 05:18:42;;;;;;;0.52;0.52;;;;;;;;;;5067314;28;20184;-76
2021/04/09 05:21:08;;;;;;;0.03;0.03;;;;;;;;;;5051354;28;20184;-77
2021/04/09 05:23:34;;;;;;;0.10;0.10;;;;;;;;;;5069203;28;20279;-77
2021/04/09 05:26:01;;;;;;;0.20;0.20;;;;;;;;;;5069418;28;20184;-77
2021/04/09 05:28:27;;;;;;;0.10;0.10;;;;;;;;;;5069282;28;20531;-77
2021/04/09 05:30:53;;;;;;;0.15;0.15;;;;;;;;;;5051389;28;20180;-78
2021/04/09 05:33:20;;;;;;;0.57;0.57;;;;;;;;;;5069332;28;20161;-77
2021/04/09 05:35:46;;;;;;;0.20;0.20;;;;;;;;;;5069403;28;20220;-78
2021/04/09 05:38:13;;;;;;;0.52;0.52;;;;;;;;;;5069011;28;20241;-78
2021/04/09 05:40:39;;;;;;;0.15;0.15;;;;;;;;;;5069089;28;20161;-78
2021/04/09 05:43:07;;;;;;;0.40;0.40;;;;;;;;;;5051136;28;20184;-77
2021/04/09 05:45:33;;;;;;;0.25;0.25;;;;;;;;;;5068615;28;20196;-77
2021/04/09 05:48:06;;;;;;;0.10;0.10;;;;;;;;;;5068853;28;20164;-78
2021/04/09 05:50:33;;;;;;;0.40;0.40;;;;;;;;;;5068771;28;20219;-78
2021/04/09 05:53:00;;;;;;;0.32;0.32;;;;;;;;;;5069004;28;20249;-77
2021/04/09 05:55:27;;;;;;;0.10;0.10;;;;;;;;;;5068878;28;20228;-78
2021/04/09 05:57:53;;;;;;;0.10;0.10;;;;;;;;;;5068822;28;20148;-78
2021/04/09 06:00:20;;;;;;;0.20;0.20;;;;;;;;;;5050893;28;20161;-78
2021/04/09 06:02:47;;;;;;;0.30;0.30;;;;;;;;;;5050870;28;20173;-78
2021/04/09 06:05:13;;;;;;;0.20;0.20;;;;;;;;;;5050758;28;20208;-78
2021/04/09 06:07:39;;;;;;;0.40;0.40;;;;;;;;;;5068941;28;20161;-77
2021/04/09 06:10:06;;;;;;;0.17;0.17;;;;;;;;;;5068840;28;20228;-79
2021/04/09 06:12:33;;;;;;;0.63;0.63;;;;;;;;;;5068562;28;20191;-77
2021/04/09 06:15:00;;;;;;;0.28;0.28;;;;;;;;;;5050780;28;20231;-80
2021/04/09 06:17:26;;;;;;;0.00;0.00;;;;;;;;;;5068464;28;20165;-80
2021/04/09 06:19:52;;;;;;;0.35;0.20;;;;;;;;;;5050904;28;20218;-78
2021/04/09 06:22:19;;;;;;;0.65;0.65;;;;;;;;;;5069421;28;20195;-77
2021/04/09 06:24:45;;;;;;;0.30;0.30;;;;;;;;;;5072819;28;20196;-78
2021/04/09 06:27:11;;;;;;;0.22;0.22;;;;;;;;;;5072888;28;20183;-77
2021/04/09 06:29:38;;;;;;;0.30;0.30;;;;;;;;;;5048448;28;20188;-76
2021/04/09 06:32:04;;;;;;;0.10;0.10;;;;;;;;;;5052697;28;20188;-77
2021/04/09 06:34:31;;;;;;;1.08;1.08;;;;;;;;;;5031601;28;20162;-76
2021/04/09 06:36:57;;;;;;;1.23;1.17;;;;;;;;;;5051103;28;20191;-77
2021/04/09 06:39:23;;;;;;;0.10;0.10;;;;;;;;;;5041354;28;20192;-76
2021/04/09 06:41:50;;;;;;;0.38;0.38;;;;;;;;;;5072334;28;20192;-78
2021/04/09 06:44:17;;;;;;;0.08;0.08;;;;;;;;;;5070420;28;20203;-76
2021/04/09 06:46:44;;;;;;;1.58;0.68;;;;;;;;;;5052322;28;20360;-77
2021/04/09 06:49:11;;;;;;;0.17;0.17;;;;;;;;;;5051586;28;20185;-75
2021/04/09 06:51:37;;;;;;;0.40;0.40;;;;;;;;;;5071755;28;20230;-76
2021/04/09 06:54:04;;;;;;;1.75;0.95;;;;;;;;;;5062721;28;20227;-76
2021/04/09 06:56:33;;;;;;;0.28;0.28;;;;;;;;;;5071984;28;20188;-69
2021/04/09 06:59:00;;;;;;;0.63;0.63;;;;;;;;;;5072051;28;20160;-69
2021/04/09 07:01:27;;;;;;;0.32;0.32;;;;;;;;;;5054069;28;20712;-69
2021/04/09 07:03:56;;;;;;;0.63;0.63;;;;;;;;;;5071998;28;20165;-71
2021/04/09 07:06:22;;;;;;;0.60;0.60;;;;;;;;;;5071865;28;20185;-70
2021/04/09 07:08:48;;;;;;;0.10;0.10;;;;;;;;;;5049664;28;20191;-69
2021/04/09 07:11:15;;;;;;;0.55;0.55;;;;;;;;;;5071340;28;20204;-70
2021/04/09 07:13:50;;;;;;;0.55;0.55;;;;;;;;;;5053300;28;20294;-69
2021/04/09 07:16:17;;;;;;;2.28;0.82;;;;;;;;;;5053593;28;20195;-69
2021/04/09 07:18:49;;;;;;;0.20;0.20;;;;;;;;;;5069270;28;20181;-69
2021/04/09 07:21:21;;;;;;;0.32;0.32;;;;;;;;;;5052289;28;20211;-69
2021/04/09 07:23:47;;;;;;;1.05;1.05;;;;;;;;;;5057054;28;20244;-67
2021/04/09 07:26:34;;;;;;;0.43;0.43;;;;;;;;;;5068598;28;20714;-69
2021/04/09 07:29:00;;;;;;;0.57;0.57;;;;;;;;;;5046238;28;20211;-70
2021/04/09 07:31:29;;;;;;;2.17;0.93;;;;;;;;;;5071198;28;20192;-70
2021/04/09 07:33:55;;;;;;;0.15;0.15;;;;;;;;;;5070278;28;20164;-69
2021/04/09 07:36:21;;;;;;;0.75;0.57;;;;;;;;;;5052089;28;20203;-69
2021/04/09 07:38:52;;;;;;;0.70;0.45;;;;;;;;;;5088979;28;20644;-68
2021/04/09 07:41:18;;;;;;;1.27;1.20;;;;;;;;;;5082161;28;20688;-70
2021/04/09 07:43:45;;;;;;;0.38;0.38;;;;;;;;;;5068590;28;20169;-69
2021/04/09 07:46:19;;;;;;;1.17;1.17;;;;;;;;;;5057832;28;20673;-69
2021/04/09 07:48:46;;;;;;;1.27;0.55;;;;;;;;;;5060193;28;20236;-69
2021/04/09 07:51:18;;;;;;;0.22;0.22;;;;;;;;;;5042355;28;20324;-69
2021/04/09 07:53:45;;;;;;;1.38;0.90;;;;;;;;;;5046569;28;20188;-69
2021/04/09 07:56:16;;;;;;;22.75;1.52;;;;;;;;;;5042186;28;20253;-68
2021/04/09 07:58:43;;;;;;;0.50;0.50;;;;;;;;;;5046605;28;20173;-68
2021/04/09 08:01:22;;;;;;;0.73;0.73;;;;;;;;;;5048693;28;20216;-68
2021/04/09 08:03:49;;;;;;;1.42;1.33;;;;;;;;;;5041519;28;20209;-68
2021/04/09 08:06:20;;;;;;;0.40;0.40;;;;;;;;;;5047057;28;20228;-68
2021/04/09 08:08:48;;;;;;;0.82;0.82;;;;;;;;;;5046126;28;20166;-69
2021/04/09 08:11:18;;;;;;;0.20;0.20;;;;;;;;;;5038901;28;20222;-68
2021/04/09 08:13:44;;;;;;;0.73;0.55;;;;;;;;;;5048475;28;20253;-76
2021/04/09 08:16:29;;;;;;;2.35;1.35;;;;;;;;;;5050006;28;20211;-76
2021/04/09 08:19:06;;;;;;;4.13;1.70;;;;;;;;;;5047243;28;20277;-77
2021/04/09 08:21:34;;;;;;;0.40;0.38;;;;;;;;;;5046939;28;20306;-76
2021/04/09 08:24:01;;;;;;;0.40;0.40;;;;;;;;;;5047735;28;20465;-77
2021/04/09 08:26:28;;;;;;;0.13;0.13;;;;;;;;;;5049836;28;20208;-76
2021/04/09 08:28:55;;;;;;;3.80;0.82;;;;;;;;;;5048226;28;20579;-77
2021/04/09 08:31:22;;;;;;;1.08;0.82;;;;;;;;;;5048715;28;20200;-77
2021/04/09 08:33:48;;;;;;;1.40;1.33;;;;;;;;;;5049979;28;20162;-76
2021/04/09 08:36:15;;;;;;;0.22;0.22;;;;;;;;;;5049086;28;20167;-76
2021/04/09 08:38:43;;;;;;;2.08;1.48;;;;;;;;;;5048104;28;20176;-77
2021/04/09 08:41:10;;;;;;;1.95;1.25;;;;;;;;;;5048136;28;20623;-76
2021/04/09 08:43:37;;;;;;;1.08;0.38;;;;;;;;;;5049665;28;20493;-76
2021/04/09 08:46:03;;;;;;;1.85;0.75;;;;;;;;;;5054291;28;20211;-76
2021/04/09 08:48:31;;;;;;;0.40;0.20;;;;;;;;;;5051744;28;20206;-77
2021/04/09 08:50:57;;;;;;;0.73;0.68;;;;;;;;;;5049792;28;20243;-77
2021/04/09 08:53:29;;;;;;;0.90;0.52;;;;;;;;;;5049508;28;20149;-76
2021/04/09 08:55:56;;;;;;;0.52;0.52;;;;;;;;;;5071304;28;20585;-77
2021/04/09 08:58:22;;;;;;;0.98;0.95;;;;;;;;;;5089486;28;20164;-76
2021/04/09 09:00:53;;;;;;;0.63;0.63;;;;;;;;;;5089568;28;20253;-76
2021/04/09 09:03:26;;;;;;;0.80;0.80;;;;;;;;;;5071450;28;20246;-76
2021/04/09 09:05:57;;;;;;;2.25;1.00;;;;;;;;;;5071283;28;20207;-76
2021/04/09 09:08:23;;;;;;;0.40;0.40;;;;;;;;;;5071569;28;20183;-75
2021/04/09 09:10:49;;;;;;;0.68;0.63;;;;;;;;;;5089430;28;20195;-76
2021/04/09 09:13:18;;;;;;;0.88;0.88;;;;;;;;;;5086856;28;20171;-76
2021/04/09 09:15:45;;;;;;;0.90;0.90;;;;;;;;;;5060319;28;21253;-76
2021/04/09 09:18:20;;;;;;;1.15;1.15;;;;;;;;;;5049182;28;20183;-77
2021/04/09 09:21:05;;;;;;;1.25;1.15;;;;;;;;;;5068395;28;20247;-76
2021/04/09 09:23:51;;;;;;;1.35;1.08;;;;;;;;;;5068411;28;20261;-77
2021/04/09 09:26:20;;;;;;;1.35;0.98;;;;;;;;;;5049929;28;20575;-76
2021/04/09 09:28:48;;;;;;;7.05;0.75;;;;;;;;;;5050461;28;20185;-77
2021/04/09 09:31:27;;;;;;;0.75;0.75;;;;;;;;;;5068919;28;20188;-76
2021/04/09 09:34:13;;;;;;;1.80;1.67;;;;;;;;;;5049561;28;20180;-76
2021/04/09 09:37:01;;;;;;;0.38;0.38;;;;;;;;;;5048328;28;20200;-76
2021/04/09 09:39:41;;;;;;;0.28;0.28;;;;;;;;;;5068637;28;20172;-73
2021/04/09 09:42:12;;;;;;;0.60;0.60;;;;;;;;;;5068058;28;20562;-75
2021/04/09 09:44:41;;;;;;;1.17;0.45;;;;;;;;;;5068725;28;20156;-76
2021/04/09 09:47:17;;;;;;;1.05;1.02;;;;;;;;;;5068255;28;20188;-76
2021/04/09 09:50:05;;;;;;;1.75;0.98;;;;;;;;;;5050716;28;20187;-77
2021/04/09 09:52:44;;;;;;;0.70;0.70;;;;;;;;;;5050984;28;20196;-76
2021/04/09 09:55:12;;;;;;;0.60;0.60;;;;;;;;;;5068974;28;20175;-76
2021/04/09 09:57:42;;;;;;;0.20;0.20;;;;;;;;;;5067882;28;20231;-76
2021/04/09 10:00:08;;;;;;;0.80;0.70;;;;;;;;;;5066683;28;20172;-76
2021/04/09 10:02:35;;;;;;;0.70;0.68;;;;;;;;;;5068595;28;20203;-77
2021/04/09 10:05:02;;;;;;;0.77;0.77;;;;;;;;;;5050838;28;20219;-76
2021/04/09 10:07:28;;;;;;;0.60;0.60;;;;;;;;;;5068996;28;20243;-77
2021/04/09 10:09:54;;;;;;;1.40;1.30;;;;;;;;;;5067807;28;20179;-76
2021/04/09 10:12:22;;;;;;;0.85;0.85;;;;;;;;;;5068611;28;20218;-77
2021/04/09 10:14:49;;;;;;;1.00;1.00;;;;;;;;;;5068555;28;20153;-76
2021/04/09 10:17:15;;;;;;;0.30;0.30;;;;;;;;;;5049312;28;20176;-77
2021/04/09 10:20:01;;;;;;;3.63;1.50;;;;;;;;;;5053804;28;20175;-78
2021/04/09 10:22:27;;;;;;;2.65;0.75;;;;;;;;;;5057564;28;20226;-77
2021/04/09 10:24:53;;;;;;;9.27;1.42;;;;;;;;;;5031280;28;20519;-77
2021/04/09 10:27:20;;;;;;;0.63;0.63;;;;;;;;;;5048509;28;20156;-76
2021/04/09 10:29:46;;;;;;;1.88;1.65;;;;;;;;;;5048628;28;20153;-76
2021/04/09 10:32:20;;;;;;;1.05;1.05;;;;;;;;;;5029751;28;20228;-76
2021/04/09 10:34:47;;;;;;;0.50;0.38;;;;;;;;;;5059948;28;20191;-77
2021/04/09 10:37:24;;;;;;;14.90;0.93;;;;;;;;;;5050346;28;20188;-76
2021/04/09 10:39:51;;;;;;;0.73;0.73;;;;;;;;;;5062016;28;20218;-77
2021/04/09 10:42:17;;;;;;;0.55;0.55;;;;;;;;;;5056320;28;20188;-77
2021/04/09 10:44:44;;;;;;;1.58;1.27;;;;;;;;;;5029997;28;20173;-76
2021/04/09 10:47:10;;;;;;;0.43;0.43;;;;;;;;;;5063491;28;20239;-77
2021/04/09 10:49:38;;;;;;;1.13;1.05;;;;;;;;;;5068052;28;20182;-76
2021/04/09 10:52:04;;;;;;;0.82;0.82;;;;;;;;;;5058785;28;20274;-77
2021/04/09 10:54:31;;;;;;;3.75;1.08;;;;;;;;;;5061973;28;20233;-76
2021/04/09 10:56:58;;;;;;;25.77;1.30;;;;;;;;;;5031838;28;20189;-76
2021/04/09 10:59:32;;;;;;;0.82;0.82;;;;;;;;;;5030371;28;20177;-76
2021/04/09 11:01:59;;;;;;;0.60;0.60;;;;;;;;;;5067110;28;20231;-76
2021/04/09 11:04:26;;;;;;;2.40;0.95;;;;;;;;;;5047820;28;20206;-75
2021/04/09 11:06:54;;;;;;;0.22;0.22;;;;;;;;;;5049347;28;20185;-76
2021/04/09 11:09:20;;;;;;;1.50;1.08;;;;;;;;;;5069525;28;20199;-76
2021/04/09 11:11:46;;;;;;;0.80;0.80;;;;;;;;;;5071418;28;20252;-76
2021/04/09 11:14:17;;;;;;;1.35;1.35;;;;;;;;;;5070012;28;20165;-75
2021/04/09 11:16:57;;;;;;;0.40;0.40;;;;;;;;;;5053138;28;20220;-76
2021/04/09 11:19:25;;;;;;;0.82;0.80;;;;;;;;;;5053052;28;20200;-75
2021/04/09 11:21:52;;;;;;;0.40;0.40;;;;;;;;;;5071077;28;20172;-76
2021/04/09 11:24:26;;;;;;;0.40;0.40;;;;;;;;;;5052688;28;20188;-76
2021/04/09 11:26:53;;;;;;;1.58;0.45;;;;;;;;;;5052171;28;20267;-77
2021/04/09 11:29:23;;;;;;;1.02;0.98;;;;;;;;;;5053341;28;20179;-76
2021/04/09 11:31:50;;;;;;;1.20;1.10;;;;;;;;;;5071045;28;20172;-76
2021/04/09 11:34:16;;;;;;;1.35;1.25;;;;;;;;;;5077300;28;20172;-77
2021/04/09 11:37:00;;;;;;;1.17;1.15;;;;;;;;;;5059583;28;20205;-77
2021/04/09 11:39:26;;;;;;;0.30;0.30;;;;;;;;;;5070761;28;20621;-76
2021/04/09 11:41:57;;;;;;;2.33;1.00;;;;;;;;;;5070544;28;20179;-76
2021/04/09 11:44:26;;;;;;;1.00;0.93;;;;;;;;;;5052139;28;20198;-76
2021/04/09 11:46:53;;;;;;;0.93;0.90;;;;;;;;;;5065542;28;20262;-76
2021/04/09 11:49:28;;;;;;;0.95;0.85;;;;;;;;;;5090759;28;20156;-76
2021/04/09 11:52:01;;;;;;;0.82;0.82;;;;;;;;;;5069449;28;20223;-76
2021/04/09 11:54:38;;;;;;;0.70;0.52;;;;;;;;;;5070202;28;20175;-76
2021/04/09 11:57:05;;;;;;;2.03;1.52;;;;;;;;;;5070661;28;20199;-68
2021/04/09 11:59:35;;;;;;;0.60;0.60;;;;;;;;;;5070808;28;20168;-76
2021/04/09 12:02:40;;;;;;;1.35;1.10;;;;;;;;;;5070802;28;20164;-67
2021/04/09 12:05:16;;;;;;;1.70;1.30;;;;;;;;;;5008322;28;20209;-67
2021/04/09 12:07:42;;;;;;;0.82;0.82;;;;;;;;;;4999275;28;20202;-68
2021/04/09 12:10:09;;;;;;;1.63;1.52;;;;;;;;;;4989254;28;20194;-68
2021/04/09 12:12:36;;;;;;;1.52;0.93;;;;;;;;;;4989047;28;20247;-68
2021/04/09 12:15:02;;;;;;;1.20;1.10;;;;;;;;;;4989186;28;20179;-68
2021/04/09 12:17:28;;;;;;;1.75;1.65;;;;;;;;;;4988057;28;20233;-68
2021/04/09 12:19:55;;;;;;;0.95;0.65;;;;;;;;;;4988556;28;20214;-68
2021/04/09 12:22:21;;;;;;;2.35;1.05;;;;;;;;;;4988813;28;20202;-68
2021/04/09 12:24:47;;;;;;;0.68;0.68;;;;;;;;;;4988680;28;20198;-68
2021/04/09 12:27:15;;;;;;;0.77;0.75;;;;;;;;;;4988057;28;20199;-67
2021/04/09 12:29:42;;;;;;;0.88;0.88;;;;;;;;;;4988910;28;20183;-68
2021/04/09 12:32:08;;;;;;;0.73;0.52;;;;;;;;;;4988578;28;20186;-67
2021/04/09 12:34:35;;;;;;;1.17;1.08;;;;;;;;;;4988578;28;20730;-68
2021/04/09 12:37:01;;;;;;;0.30;0.30;;;;;;;;;;5039484;28;20197;-68
2021/04/09 12:39:27;;;;;;;0.50;0.50;;;;;;;;;;5048971;28;20237;-67
2021/04/09 12:41:54;;;;;;;0.52;0.52;;;;;;;;;;5048162;28;20173;-67
2021/04/09 12:44:21;;;;;;;1.00;0.75;;;;;;;;;;5049536;28;20176;-68
2021/04/09 12:46:48;;;;;;;1.08;0.73;;;;;;;;;;5062081;28;20196;-68
2021/04/09 12:49:18;;;;;;;1.95;1.40;;;;;;;;;;5068207;28;20200;-68
2021/04/09 12:51:46;;;;;;;1.08;0.65;;;;;;;;;;5068141;28;20292;-67
2021/04/09 12:54:13;;;;;;;0.93;0.93;;;;;;;;;;5069742;28;20240;-67
2021/04/09 12:56:39;;;;;;;0.85;0.85;;;;;;;;;;5068217;28;20184;-67
2021/04/09 12:59:05;;;;;;;1.25;0.80;;;;;;;;;;5069514;28;20193;-67
2021/04/09 13:01:32;;;;;;;0.60;0.60;;;;;;;;;;5069301;28;20165;-67
2021/04/09 13:03:59;;;;;;;1.13;1.02;;;;;;;;;;5067778;28;20229;-67
2021/04/09 13:06:25;;;;;;;0.63;0.63;;;;;;;;;;5068204;28;20201;-67
2021/04/09 13:08:51;;;;;;;1.17;1.17;;;;;;;;;;5068046;28;20193;-66
2021/04/09 13:11:17;;;;;;;1.50;1.00;;;;;;;;;;5067248;28;20426;-68
2021/04/09 13:13:43;;;;;;;0.55;0.32;;;;;;;;;;5069410;28;20191;-68
2021/04/09 13:16:10;;;;;;;0.35;0.35;;;;;;;;;;5069152;28;20629;-67
2021/04/09 13:18:36;;;;;;;3.03;0.95;;;;;;;;;;5067738;28;20575;-68
2021/04/09 13:21:03;;;;;;;1.13;1.13;;;;;;;;;;5069059;28;20220;-68
2021/04/09 13:23:30;;;;;;;0.75;0.75;;;;;;;;;;5069065;28;20175;-67
2021/04/09 13:25:56;;;;;;;0.60;0.60;;;;;;;;;;5067647;28;20263;-68
2021/04/09 13:28:24;;;;;;;0.90;0.90;;;;;;;;;;5068654;28;20196;-67
2021/04/09 13:30:58;;;;;;;1.65;1.55;;;;;;;;;;5050015;28;20233;-69
2021/04/09 13:33:35;;;;;;;0.75;0.70;;;;;;;;;;5048324;28;20190;-67
2021/04/09 13:36:02;;;;;;;0.98;0.93;;;;;;;;;;5029251;28;20221;-66
2021/04/09 13:38:28;;;;;;;0.10;0.10;;;;;;;;;;5029270;28;20190;-69
2021/04/09 13:40:55;;;;;;;1.05;1.00;;;;;;;;;;5029682;28;20166;-67
2021/04/09 13:43:21;;;;;;;1.80;1.48;;;;;;;;;;5029479;28;20654;-67
2021/04/09 13:45:47;;;;;;;0.40;0.28;;;;;;;;;;5038113;28;20219;-68
2021/04/09 13:48:14;;;;;;;0.68;0.68;;;;;;;;;;5057992;28;20228;-67
2021/04/09 13:50:41;;;;;;;0.30;0.30;;;;;;;;;;5049623;28;20251;-68
2021/04/09 13:53:07;;;;;;;0.75;0.75;;;;;;;;;;5068132;28;20244;-68
2021/04/09 13:55:33;;;;;;;0.65;0.65;;;;;;;;;;5047137;28;20156;-68
2021/04/09 13:57:59;;;;;;;1.65;0.75;;;;;;;;;;5048036;28;20227;-67
2021/04/09 14:00:26;;;;;;;1.25;1.13;;;;;;;;;;5047317;28;20236;-68
2021/04/09 14:02:52;;;;;;;1.13;1.08;;;;;;;;;;5048424;28;20162;-68
2021/04/09 14:05:18;;;;;;;1.95;1.25;;;;;;;;;;5047170;28;20209;-68
2021/04/09 14:07:47;;;;;;;1.35;0.65;;;;;;;;;;5047478;28;20197;-68
2021/04/09 14:10:13;;;;;;;0.85;0.50;;;;;;;;;;5049035;28;20185;-68
2021/04/09 14:12:40;;;;;;;0.73;0.73;;;;;;;;;;5048772;28;20221;-68
2021/04/09 14:15:07;;;;;;;1.65;0.75;;;;;;;;;;5030760;28;20189;-68
2021/04/09 14:17:33;;;;;;;0.40;0.40;;;;;;;;;;5028872;28;20200;-68
2021/04/09 14:20:00;;;;;;;0.57;0.43;;;;;;;;;;5028819;28;20165;-68
2021/04/09 14:22:28;;;;;;;0.20;0.20;;;;;;;;;;5027771;28;20229;-68
2021/04/09 14:24:57;;;;;;;0.45;0.45;;;;;;;;;;5028961;28;20511;-68
2021/04/09 14:27:23;;;;;;;0.30;0.28;;;;;;;;;;5028928;28;20193;-68
2021/04/09 14:29:50;;;;;;;0.30;0.30;;;;;;;;;;5027687;28;20173;-68
2021/04/09 14:32:16;;;;;;;0.52;0.40;;;;;;;;;;5028810;28;20154;-68
2021/04/09 14:34:42;;;;;;;0.60;0.60;;;;;;;;;;5048923;28;20160;-68
2021/04/09 14:37:08;;;;;;;0.80;0.80;;;;;;;;;;5068389;28;20203;-68
2021/04/09 14:39:35;;;;;;;0.30;0.30;;;;;;;;;;5050778;28;20260;-68
2021/04/09 14:42:01;;;;;;;4.03;0.65;;;;;;;;;;5068701;28;20188;-68
2021/04/09 14:44:27;;;;;;;0.57;0.57;;;;;;;;;;5052863;28;20200;-69
2021/04/09 14:46:53;;;;;;;0.10;0.10;;;;;;;;;;5072045;28;20204;-68
2021/04/09 14:49:19;;;;;;;0.10;0.10;;;;;;;;;;5054370;28;20195;-68